Time;durP1;ratioP1;P1;durP2;ratioP2;P2;SDS_P1;SDS_P2;PMS_P1;PMS_P2;Temp;Humidity;BMP_temperature;BMP_pressure;BME280_temperature;BME280_humidity;BME280_pressure;Samples;Min_cycle;Max_cycle;Signal;HPM_P1;HPM_P2
2023/02/15 00:01:42;;;;;;;0.30;0.30;;;-0.90;99.90;;;;;;4994869;28;20026;-77
2023/02/15 00:04:08;;;;;;;0.20;0.20;;;-1.00;99.90;;;;;;4994466;28;20031;-77
2023/02/15 00:06:34;;;;;;;0.20;0.20;;;-1.00;99.90;;;;;;5017505;23;20389;-74
2023/02/15 00:09:00;;;;;;;0.30;0.30;;;-0.90;99.90;;;;;;4994855;28;20110;-73
2023/02/15 00:11:49;;;;;;;0.25;0.25;;;-0.90;99.90;;;;;;4994662;28;20038;-74
2023/02/15 00:14:20;;;;;;;0.20;0.20;;;-0.90;99.90;;;;;;4994688;28;20034;-74
2023/02/15 00:16:47;;;;;;;0.20;0.20;;;-0.90;99.90;;;;;;4994538;28;20109;-74
2023/02/15 00:19:15;;;;;;;0.20;0.20;;;-0.90;99.90;;;;;;4994687;28;20094;-73
2023/02/15 00:21:41;;;;;;;0.20;0.20;;;-1.00;99.90;;;;;;4994488;28;20030;-74
2023/02/15 00:24:08;;;;;;;0.10;0.10;;;-1.10;99.90;;;;;;4994679;28;20399;-73
2023/02/15 00:26:34;;;;;;;0.20;0.20;;;-1.10;99.90;;;;;;4994353;28;20049;-73
2023/02/15 00:29:00;;;;;;;0.38;0.28;;;-1.20;99.90;;;;;;4994480;28;20030;-73
2023/02/15 00:31:27;;;;;;;0.30;0.30;;;-1.30;99.90;;;;;;4994722;28;20482;-73
2023/02/15 00:33:52;;;;;;;0.20;0.20;;;-1.30;99.90;;;;;;4994374;28;20022;-73
2023/02/15 00:36:18;;;;;;;0.30;0.30;;;-1.40;99.90;;;;;;4994193;28;20033;-73
2023/02/15 00:38:43;;;;;;;0.20;0.20;;;-1.40;99.90;;;;;;4992602;28;20022;-74
2023/02/15 00:41:09;;;;;;;0.20;0.20;;;-1.40;99.90;;;;;;4994300;28;20125;-73
2023/02/15 00:43:36;;;;;;;0.17;0.17;;;-1.40;99.90;;;;;;4994262;28;20031;-74
2023/02/15 00:46:04;;;;;;;0.20;0.20;;;-1.40;99.90;;;;;;4994370;28;20041;-74
2023/02/15 00:48:29;;;;;;;0.20;0.20;;;-1.40;99.90;;;;;;4994693;28;20057;-73
2023/02/15 00:50:58;;;;;;;0.30;0.30;;;-1.30;99.90;;;;;;4994186;28;20066;-74
2023/02/15 00:53:24;;;;;;;0.20;0.20;;;-1.20;99.90;;;;;;4994328;28;20471;-73
2023/02/15 00:55:50;;;;;;;0.20;0.20;;;-1.20;99.90;;;;;;4994050;28;20029;-73
2023/02/15 00:58:16;;;;;;;0.20;0.20;;;-1.20;99.90;;;;;;4994012;28;20117;-74
2023/02/15 01:00:46;;;;;;;0.25;0.25;;;-1.30;99.90;;;;;;4993999;28;20022;-74
2023/02/15 01:03:13;;;;;;;0.20;0.20;;;-1.30;99.90;;;;;;4993966;28;20122;-73
2023/02/15 01:05:39;;;;;;;0.20;0.20;;;-1.30;99.90;;;;;;4994198;28;20034;-73
2023/02/15 01:08:06;;;;;;;0.20;0.20;;;-1.30;99.90;;;;;;4994214;28;20076;-73
2023/02/15 01:10:33;;;;;;;0.20;0.20;;;-1.40;99.90;;;;;;4993891;28;20038;-73
2023/02/15 01:12:58;;;;;;;0.20;0.20;;;-1.40;99.90;;;;;;4993819;28;20065;-73
2023/02/15 01:15:24;;;;;;;0.32;0.28;;;-1.40;99.90;;;;;;5008943;28;20477;-73
2023/02/15 01:17:53;;;;;;;0.20;0.20;;;-1.50;99.90;;;;;;4994122;28;20022;-73
2023/02/15 01:20:21;;;;;;;0.30;0.30;;;-1.50;99.90;;;;;;4994302;28;20022;-73
2023/02/15 01:22:49;;;;;;;0.20;0.20;;;-1.50;99.90;;;;;;4994006;28;20537;-73
2023/02/15 01:25:18;;;;;;;0.38;0.38;;;-1.50;99.90;;;;;;5008695;28;20073;-74
2023/02/15 01:27:44;;;;;;;0.30;0.30;;;-1.50;99.90;;;;;;4994264;28;20042;-73
2023/02/15 01:30:11;;;;;;;0.20;0.20;;;-1.50;99.90;;;;;;4993711;28;20026;-73
2023/02/15 01:32:36;;;;;;;0.20;0.20;;;-1.50;99.90;;;;;;4993523;28;20030;-73
2023/02/15 01:35:02;;;;;;;0.25;0.25;;;-1.40;99.90;;;;;;4993647;28;20490;-73
2023/02/15 01:37:30;;;;;;;0.20;0.20;;;-1.40;99.90;;;;;;4993574;28;20476;-73
2023/02/15 01:39:55;;;;;;;0.20;0.20;;;-1.30;99.90;;;;;;4994133;28;20038;-73
2023/02/15 01:42:23;;;;;;;0.20;0.20;;;-1.30;99.90;;;;;;4993562;28;20018;-73
2023/02/15 01:44:58;;;;;;;0.20;0.20;;;-1.30;99.90;;;;;;4993648;28;20031;-73
2023/02/15 01:47:45;;;;;;;0.20;0.20;;;-1.30;99.90;;;;;;4993766;28;20032;-74
2023/02/15 01:50:16;;;;;;;0.20;0.20;;;-1.30;99.90;;;;;;4995867;28;20023;-73
2023/02/15 01:53:13;;;;;;;0.10;0.10;;;-1.30;99.90;;;;;;4997390;28;20033;-73
2023/02/15 01:55:53;;;;;;;0.20;0.20;;;-1.30;99.90;;;;;;4995263;28;20030;-73
2023/02/15 01:58:21;;;;;;;0.20;0.20;;;-1.30;99.90;;;;;;4997583;28;20022;-73
2023/02/15 02:00:47;;;;;;;0.20;0.20;;;-1.30;99.90;;;;;;4997244;28;20068;-73
2023/02/15 02:03:13;;;;;;;0.30;0.30;;;-1.30;99.90;;;;;;4997508;28;20434;-73
2023/02/15 02:05:40;;;;;;;0.20;0.20;;;-1.40;99.90;;;;;;4993396;28;20037;-74
2023/02/15 02:08:07;;;;;;;0.45;0.28;;;-1.40;99.90;;;;;;5012080;28;20034;-74
2023/02/15 02:10:32;;;;;;;0.75;0.75;;;-1.40;99.90;;;;;;4997309;28;20037;-73
2023/02/15 02:13:01;;;;;;;15.50;14.25;;;-1.40;99.90;;;;;;4994702;28;20031;-74
2023/02/15 02:15:51;;;;;;;2.78;2.58;;;-1.40;99.90;;;;;;5011971;28;20030;-73
2023/02/15 02:18:35;;;;;;;1.85;1.75;;;-1.40;99.90;;;;;;4996563;28;20393;-74
2023/02/15 02:21:19;;;;;;;5.93;5.47;;;-1.40;99.90;;;;;;4996736;28;20026;-74
2023/02/15 02:24:11;;;;;;;8.82;7.47;;;-1.40;99.90;;;;;;4996946;28;20034;-74
2023/02/15 02:26:59;;;;;;;0.93;0.88;;;-1.40;99.90;;;;;;5011706;28;20479;-74
2023/02/15 02:29:42;;;;;;;0.38;0.35;;;-1.40;99.90;;;;;;4996540;28;20030;-73
2023/02/15 02:32:32;;;;;;;0.20;0.20;;;-1.30;99.90;;;;;;4996336;28;20033;-74
2023/02/15 02:35:11;;;;;;;3.67;3.40;;;-1.20;99.90;;;;;;4996917;28;20061;-73
2023/02/15 02:37:39;;;;;;;0.30;0.30;;;-1.10;99.90;;;;;;4996297;28;20061;-74
2023/02/15 02:40:16;;;;;;;0.20;0.20;;;-1.00;99.90;;;;;;4996124;28;20360;-74
2023/02/15 02:42:46;;;;;;;0.22;0.22;;;-0.90;99.90;;;;;;4995256;28;20022;-74
2023/02/15 02:45:24;;;;;;;0.20;0.20;;;-0.90;99.90;;;;;;4996073;28;20550;-74
2023/02/15 02:47:58;;;;;;;0.15;0.15;;;-0.80;99.90;;;;;;4991399;28;20030;-74
2023/02/15 02:50:28;;;;;;;0.20;0.20;;;-0.80;99.90;;;;;;4976749;28;20407;-74
2023/02/15 02:52:56;;;;;;;0.20;0.20;;;-0.70;99.90;;;;;;4977742;28;20029;-73
2023/02/15 02:55:37;;;;;;;0.20;0.20;;;-0.60;99.90;;;;;;4996168;28;20018;-74
2023/02/15 02:58:15;;;;;;;0.20;0.20;;;-0.60;99.90;;;;;;5010939;28;20118;-74
2023/02/15 03:01:24;;;;;;;0.10;0.10;;;-0.50;99.90;;;;;;4980018;28;20019;-74
2023/02/15 03:03:56;;;;;;;0.20;0.20;;;-0.40;99.90;;;;;;4973161;28;20090;-74
2023/02/15 03:06:36;;;;;;;0.20;0.20;;;-0.40;99.90;;;;;;4994748;28;20450;-73
2023/02/15 03:09:14;;;;;;;0.20;0.20;;;-0.30;99.90;;;;;;4996101;28;20034;-74
2023/02/15 03:11:43;;;;;;;0.10;0.10;;;-0.30;99.90;;;;;;4995847;28;20030;-74
2023/02/15 03:14:10;;;;;;;0.20;0.20;;;-0.30;99.90;;;;;;4995764;28;20030;-74
2023/02/15 03:16:37;;;;;;;0.30;0.30;;;-0.30;99.90;;;;;;4995482;28;20070;-75
2023/02/15 03:19:11;;;;;;;0.20;0.20;;;-0.20;99.90;;;;;;4995527;28;20019;-74
2023/02/15 03:21:57;;;;;;;0.20;0.20;;;-0.20;99.90;;;;;;4995456;28;20423;-73
2023/02/15 03:24:27;;;;;;;0.20;0.20;;;-0.20;99.90;;;;;;4981533;28;20042;-74
2023/02/15 03:26:55;;;;;;;0.17;0.17;;;-0.20;99.90;;;;;;4993326;28;20030;-74
2023/02/15 03:29:24;;;;;;;0.20;0.20;;;-0.20;99.90;;;;;;4989730;28;20488;-73
2023/02/15 03:31:56;;;;;;;0.15;0.15;;;-0.20;99.90;;;;;;4994617;28;20022;-74
2023/02/15 03:34:22;;;;;;;0.20;0.20;;;-0.20;99.90;;;;;;4995377;28;20014;-74
2023/02/15 03:37:05;;;;;;;0.17;0.17;;;-0.20;99.90;;;;;;4995440;28;20025;-74
2023/02/15 03:39:31;;;;;;;0.20;0.20;;;-0.20;99.90;;;;;;5010218;28;20026;-74
2023/02/15 03:42:32;;;;;;;0.10;0.10;;;-0.20;99.90;;;;;;4995199;28;20489;-74
2023/02/15 03:45:10;;;;;;;0.20;0.20;;;-0.20;99.90;;;;;;4995020;28;20365;-74
2023/02/15 03:47:40;;;;;;;0.10;0.10;;;-0.20;99.90;;;;;;4994970;28;20022;-74
2023/02/15 03:53:07;;;;;;;0.10;0.10;;;-0.10;99.90;;;;;;4995174;28;20030;-74
2023/02/15 03:55:34;;;;;;;0.17;0.17;;;-0.10;99.90;;;;;;4994893;28;20120;-74
2023/02/15 04:03:42;;;;;;;0.20;0.20;;;-0.10;99.90;;;;;;4995058;28;20081;-74
2023/02/15 04:06:08;;;;;;;0.20;0.20;;;-0.20;99.90;;;;;;5009785;28;20049;-74
2023/02/15 04:11:17;;;;;;;0.20;0.20;;;-0.10;99.90;;;;;;4994900;28;20117;-74
2023/02/15 04:13:43;;;;;;;0.20;0.20;;;-0.10;99.90;;;;;;4993584;28;20113;-74
2023/02/15 04:16:09;;;;;;;0.20;0.20;;;-0.10;99.90;;;;;;4994173;28;20105;-74
2023/02/15 04:26:59;;;;;;;0.20;0.20;;;-0.10;99.90;;;;;;4994274;28;20060;-74
2023/02/15 04:29:25;;;;;;;0.20;0.20;;;-0.20;99.90;;;;;;4992024;28;20035;-74
2023/02/15 04:31:53;;;;;;;0.10;0.10;;;-0.20;99.90;;;;;;4994107;28;20022;-74
2023/02/15 04:34:19;;;;;;;0.10;0.10;;;-0.20;99.90;;;;;;5008520;28;20663;-74
2023/02/15 04:36:44;;;;;;;0.20;0.20;;;-0.20;99.90;;;;;;4992723;28;20033;-74
2023/02/15 04:39:13;;;;;;;0.20;0.20;;;-0.20;99.90;;;;;;4994201;28;20025;-74
2023/02/15 04:41:38;;;;;;;0.13;0.13;;;-0.10;99.90;;;;;;4994243;28;20022;-74
2023/02/15 04:44:04;;;;;;;0.20;0.20;;;-0.10;99.90;;;;;;4994083;28;20126;-73
2023/02/15 04:46:30;;;;;;;0.17;0.17;;;-0.10;99.90;;;;;;4993828;28;20058;-74
2023/02/15 04:48:56;;;;;;;0.10;0.10;;;-0.10;99.90;;;;;;4993906;28;20045;-73
2023/02/15 04:51:21;;;;;;;0.20;0.20;;;-0.10;99.90;;;;;;4990410;28;20022;-74
2023/02/15 04:53:47;;;;;;;0.13;0.13;;;0.00;99.90;;;;;;4974320;28;20089;-74
2023/02/15 04:56:13;;;;;;;0.20;0.20;;;-0.10;99.90;;;;;;4974227;28;20054;-74
2023/02/15 04:58:40;;;;;;;0.10;0.10;;;-0.10;99.90;;;;;;4974360;28;20531;-74
2023/02/15 05:01:07;;;;;;;0.20;0.20;;;0.00;99.90;;;;;;4988094;28;20125;-74
2023/02/15 05:03:33;;;;;;;0.20;0.20;;;0.00;99.90;;;;;;4993568;28;20391;-73
2023/02/15 05:05:58;;;;;;;0.20;0.20;;;0.00;99.90;;;;;;4991354;28;20039;-74
2023/02/15 05:08:24;;;;;;;0.15;0.15;;;0.00;99.90;;;;;;5008721;28;20030;-73
2023/02/15 05:10:49;;;;;;;0.20;0.20;;;0.10;99.90;;;;;;4991268;28;20027;-74
2023/02/15 05:13:15;;;;;;;0.10;0.10;;;0.10;99.90;;;;;;4993476;28;20030;-74
2023/02/15 05:15:41;;;;;;;0.20;0.20;;;0.00;99.90;;;;;;4993284;28;20022;-74
2023/02/15 05:18:07;;;;;;;0.20;0.20;;;0.00;99.90;;;;;;4993655;28;20034;-73
2023/02/15 05:20:33;;;;;;;0.20;0.20;;;0.10;99.90;;;;;;4991951;28;20023;-74
2023/02/15 05:22:58;;;;;;;0.28;0.28;;;0.10;99.90;;;;;;4991239;28;20096;-74
2023/02/15 05:28:19;;;;;;;0.20;0.20;;;0.00;99.90;;;;;;4987555;28;20034;-73
2023/02/15 05:31:07;;;;;;;0.10;0.10;;;0.00;99.90;;;;;;4974068;28;20077;-74
2023/02/15 05:33:34;;;;;;;0.20;0.20;;;0.00;99.90;;;;;;4972797;28;20054;-74
2023/02/15 05:36:00;;;;;;;0.10;0.10;;;0.00;99.90;;;;;;4973884;28;20119;-74
2023/02/15 05:38:25;;;;;;;0.13;0.13;;;0.00;99.90;;;;;;4976974;28;20073;-74
2023/02/15 05:40:52;;;;;;;0.10;0.10;;;0.00;99.90;;;;;;4993640;28;20023;-73
2023/02/15 05:43:18;;;;;;;0.20;0.20;;;-0.10;99.90;;;;;;4993364;28;20033;-74
2023/02/15 05:45:52;;;;;;;0.10;0.10;;;-0.10;99.90;;;;;;4993184;28;20101;-74
2023/02/15 05:48:19;;;;;;;0.10;0.10;;;-0.10;99.90;;;;;;4983806;28;20073;-74
2023/02/15 05:50:45;;;;;;;0.20;0.20;;;-0.10;99.90;;;;;;4974288;28;20495;-74
2023/02/15 05:53:10;;;;;;;0.15;0.15;;;0.00;99.90;;;;;;4979657;28;20038;-74
2023/02/15 05:55:40;;;;;;;0.10;0.10;;;-0.10;99.90;;;;;;4993186;28;20176;-74
2023/02/15 05:58:07;;;;;;;0.20;0.20;;;0.00;99.90;;;;;;4991163;28;20430;-74
2023/02/15 06:00:33;;;;;;;0.20;0.20;;;0.00;99.90;;;;;;4975879;28;20103;-74
2023/02/15 06:02:59;;;;;;;0.10;0.10;;;0.00;99.90;;;;;;4992935;28;20045;-74
2023/02/15 06:05:24;;;;;;;0.20;0.20;;;0.00;99.90;;;;;;4992999;28;20034;-72
2023/02/15 06:07:50;;;;;;;0.10;0.10;;;0.10;99.90;;;;;;5033088;23;20508;-77
2023/02/15 06:10:15;;;;;;;0.20;0.20;;;0.10;99.90;;;;;;4973400;28;20058;-76
2023/02/15 06:12:41;;;;;;;0.10;0.10;;;0.10;99.90;;;;;;4986818;28;20376;-77
2023/02/15 06:15:07;;;;;;;0.17;0.17;;;0.10;99.90;;;;;;4992089;28;20490;-77
2023/02/15 06:17:32;;;;;;;0.20;0.20;;;0.10;99.90;;;;;;4990678;28;20387;-77
2023/02/15 06:19:58;;;;;;;0.20;0.20;;;0.20;99.90;;;;;;4992956;28;20022;-77
2023/02/15 06:22:23;;;;;;;0.20;0.20;;;0.20;99.90;;;;;;4990101;28;20520;-76
2023/02/15 06:24:49;;;;;;;0.20;0.20;;;0.20;99.90;;;;;;4993549;28;20465;-77
2023/02/15 06:27:15;;;;;;;0.20;0.20;;;0.20;99.90;;;;;;4991407;28;20030;-77
2023/02/15 06:29:40;;;;;;;0.20;0.20;;;0.20;99.90;;;;;;4993632;28;20081;-78
2023/02/15 06:32:06;;;;;;;0.10;0.10;;;0.20;99.90;;;;;;4993376;28;20038;-77
2023/02/15 06:34:32;;;;;;;0.13;0.13;;;0.20;99.90;;;;;;4989131;28;20467;-78
2023/02/15 06:36:57;;;;;;;0.20;0.20;;;0.20;99.90;;;;;;4994034;28;20038;-77
2023/02/15 06:39:23;;;;;;;0.10;0.10;;;0.20;99.90;;;;;;5011526;28;20030;-77
2023/02/15 06:41:48;;;;;;;0.20;0.20;;;0.20;99.90;;;;;;4996720;28;20033;-77
2023/02/15 06:44:14;;;;;;;0.13;0.13;;;0.20;99.90;;;;;;4997450;28;20088;-78
2023/02/15 06:46:40;;;;;;;0.20;0.20;;;0.20;99.90;;;;;;4995144;28;20027;-75
2023/02/15 06:49:05;;;;;;;0.10;0.10;;;0.20;99.90;;;;;;4996407;28;20027;-76
2023/02/15 06:51:31;;;;;;;0.20;0.20;;;0.10;99.90;;;;;;4995153;28;20395;-76
2023/02/15 06:53:56;;;;;;;0.10;0.10;;;0.10;99.90;;;;;;4996276;28;20033;-76
2023/02/15 06:56:22;;;;;;;0.30;0.30;;;0.10;99.90;;;;;;4996396;28;20475;-75
2023/02/15 06:58:49;;;;;;;0.20;0.20;;;0.10;99.90;;;;;;4996235;28;20027;-76
2023/02/15 07:01:15;;;;;;;0.10;0.10;;;0.10;99.90;;;;;;4994865;28;20239;-76
2023/02/15 07:03:40;;;;;;;0.20;0.20;;;0.10;99.90;;;;;;4996160;28;20026;-76
2023/02/15 07:06:08;;;;;;;0.10;0.10;;;0.10;99.90;;;;;;4996357;28;20522;-76
2023/02/15 07:08:35;;;;;;;0.20;0.20;;;0.10;99.90;;;;;;5011151;28;20034;-76
2023/02/15 07:13:45;;;;;;;0.30;0.30;;;0.20;99.90;;;;;;4996089;28;20044;-77
2023/02/15 07:16:11;;;;;;;0.20;0.20;;;0.20;99.90;;;;;;4995912;28;20479;-75
2023/02/15 07:18:37;;;;;;;0.20;0.20;;;0.10;99.90;;;;;;4995893;28;20105;-76
2023/02/15 07:21:03;;;;;;;0.10;0.10;;;0.20;99.90;;;;;;4995883;28;20101;-75
2023/02/15 07:23:29;;;;;;;0.20;0.20;;;0.20;99.90;;;;;;4996078;28;20080;-75
2023/02/15 07:25:58;;;;;;;0.10;0.10;;;0.20;99.90;;;;;;4995692;28;20546;-75
2023/02/15 07:28:24;;;;;;;0.10;0.10;;;0.20;99.90;;;;;;4995718;28;20029;-76
2023/02/15 07:30:49;;;;;;;0.10;0.10;;;0.20;99.90;;;;;;4995624;28;20031;-76
2023/02/15 07:33:24;;;;;;;0.20;0.20;;;0.20;99.90;;;;;;4995506;28;20074;-74
2023/02/15 07:35:53;;;;;;;0.10;0.10;;;0.20;99.90;;;;;;4995824;28;20387;-74
2023/02/15 07:38:20;;;;;;;0.10;0.10;;;0.30;99.90;;;;;;4995470;28;20022;-75
2023/02/15 07:40:45;;;;;;;0.20;0.20;;;0.30;99.90;;;;;;4996019;28;20026;-75
2023/02/15 07:43:11;;;;;;;0.10;0.10;;;0.30;99.90;;;;;;4996240;28;20033;-75
2023/02/15 07:45:37;;;;;;;0.20;0.20;;;0.30;99.90;;;;;;4995628;28;20498;-75
2023/02/15 07:48:04;;;;;;;0.10;0.10;;;0.30;99.90;;;;;;5010211;28;20030;-75
2023/02/15 07:50:30;;;;;;;0.15;0.15;;;0.40;99.90;;;;;;4995558;28;20496;-75
2023/02/15 07:52:55;;;;;;;0.10;0.10;;;0.40;99.90;;;;;;4995158;28;20121;-75
2023/02/15 07:55:21;;;;;;;0.10;0.10;;;0.50;99.90;;;;;;4993956;28;20114;-76
2023/02/15 07:57:49;;;;;;;0.20;0.20;;;0.50;99.90;;;;;;4995736;28;20046;-75
2023/02/15 08:00:16;;;;;;;0.20;0.20;;;0.50;99.90;;;;;;4995118;28;20077;-75
2023/02/15 08:02:48;;;;;;;0.17;0.17;;;0.60;99.90;;;;;;4995385;28;20030;-75
2023/02/15 08:05:14;;;;;;;0.10;0.10;;;0.60;99.90;;;;;;4995052;28;20490;-75
2023/02/15 08:07:39;;;;;;;0.20;0.20;;;0.60;99.90;;;;;;4994800;28;20049;-76
2023/02/15 08:10:06;;;;;;;0.10;0.10;;;0.60;99.90;;;;;;4993666;28;20118;-74
2023/02/15 08:12:31;;;;;;;0.20;0.20;;;0.70;99.90;;;;;;4994821;28;20062;-75
2023/02/15 08:14:57;;;;;;;0.20;0.20;;;0.80;99.90;;;;;;4995355;28;20066;-75
2023/02/15 08:17:23;;;;;;;0.20;0.20;;;0.70;99.90;;;;;;4994729;28;20432;-76
2023/02/15 08:19:48;;;;;;;0.20;0.20;;;0.80;99.90;;;;;;4995207;28;20479;-76
2023/02/15 08:22:14;;;;;;;0.15;0.15;;;0.80;99.90;;;;;;4994665;28;20060;-76
2023/02/15 08:24:41;;;;;;;0.20;0.20;;;0.90;99.90;;;;;;4994583;28;20034;-76
2023/02/15 08:27:09;;;;;;;0.20;0.20;;;0.90;99.90;;;;;;4994487;28;20030;-76
2023/02/15 08:29:37;;;;;;;0.20;0.20;;;0.90;99.90;;;;;;4994523;28;20049;-76
2023/02/15 08:32:08;;;;;;;0.20;0.20;;;1.00;99.90;;;;;;4994526;28;20026;-76
2023/02/15 08:34:37;;;;;;;0.20;0.20;;;1.00;99.90;;;;;;4994727;28;20022;-76
2023/02/15 08:37:03;;;;;;;0.10;0.10;;;0.90;99.90;;;;;;4994331;28;20026;-76
2023/02/15 08:39:29;;;;;;;0.10;0.10;;;0.90;99.90;;;;;;4994366;28;20019;-76
2023/02/15 08:41:54;;;;;;;0.20;0.20;;;1.00;99.90;;;;;;4994363;28;20046;-76
2023/02/15 08:44:20;;;;;;;0.20;0.20;;;1.10;99.90;;;;;;4994565;28;20030;-76
2023/02/15 08:46:48;;;;;;;0.13;0.13;;;1.10;99.90;;;;;;4994180;28;20389;-76
2023/02/15 08:49:17;;;;;;;0.10;0.10;;;1.10;99.90;;;;;;4992274;28;20034;-76
2023/02/15 08:51:43;;;;;;;0.20;0.20;;;1.10;99.90;;;;;;5009459;28;20030;-76
2023/02/15 08:54:12;;;;;;;0.25;0.25;;;1.20;99.90;;;;;;4993926;28;20476;-76
2023/02/15 08:56:40;;;;;;;0.10;0.10;;;1.20;99.90;;;;;;4994154;28;20387;-76
2023/02/15 08:59:11;;;;;;;0.20;0.20;;;1.20;99.90;;;;;;4993631;28;20034;-76
2023/02/15 09:01:36;;;;;;;0.20;0.20;;;1.30;99.90;;;;;;4994160;28;20105;-76
2023/02/15 09:04:05;;;;;;;0.13;0.13;;;1.30;99.90;;;;;;4993914;28;20471;-76
2023/02/15 09:06:31;;;;;;;0.20;0.20;;;1.30;99.90;;;;;;4993755;28;20042;-76
2023/02/15 09:08:56;;;;;;;0.10;0.10;;;1.40;99.90;;;;;;4992630;28;20499;-76
2023/02/15 09:11:28;;;;;;;0.10;0.10;;;1.40;99.90;;;;;;4993690;28;20058;-76
2023/02/15 09:13:54;;;;;;;0.20;0.20;;;1.50;99.90;;;;;;4993660;28;20062;-76
2023/02/15 09:16:21;;;;;;;0.20;0.20;;;1.60;99.90;;;;;;4993766;28;20045;-76
2023/02/15 09:18:48;;;;;;;0.10;0.10;;;1.60;99.90;;;;;;4993727;28;20022;-76
2023/02/15 09:21:16;;;;;;;0.20;0.20;;;1.50;99.90;;;;;;4993773;28;20034;-76
2023/02/15 09:23:47;;;;;;;0.20;0.20;;;1.50;99.90;;;;;;4994075;28;20019;-76
2023/02/15 09:26:16;;;;;;;0.20;0.20;;;1.40;99.90;;;;;;4993578;28;20038;-76
2023/02/15 09:28:42;;;;;;;0.10;0.10;;;1.50;99.90;;;;;;4993995;28;20070;-77
2023/02/15 09:31:14;;;;;;;0.20;0.20;;;1.60;99.90;;;;;;4993665;28;20057;-77
2023/02/15 09:33:41;;;;;;;0.20;0.20;;;1.70;99.90;;;;;;5008726;28;20053;-76
2023/02/15 09:36:17;;;;;;;0.15;0.15;;;1.70;99.90;;;;;;4992336;28;20029;-76
2023/02/15 09:38:44;;;;;;;0.20;0.20;;;1.80;99.90;;;;;;4990051;28;20018;-76
2023/02/15 09:41:22;;;;;;;0.20;0.20;;;1.90;99.90;;;;;;5003217;28;20027;-76
2023/02/15 09:44:13;;;;;;;0.10;0.10;;;2.00;99.90;;;;;;4991216;28;20034;-76
2023/02/15 09:46:45;;;;;;;0.15;0.15;;;2.10;99.90;;;;;;4986583;28;20054;-76
2023/02/15 09:49:39;;;;;;;0.10;0.10;;;2.00;99.90;;;;;;4992947;28;20097;-75
2023/02/15 09:52:43;;;;;;;0.13;0.13;;;2.10;99.90;;;;;;4956144;28;20046;-77
2023/02/15 09:55:18;;;;;;;0.20;0.20;;;2.20;99.90;;;;;;4979372;28;20081;-76
2023/02/15 09:58:05;;;;;;;0.13;0.13;;;2.30;99.90;;;;;;4993457;28;20029;-76
2023/02/15 10:00:42;;;;;;;0.17;0.17;;;2.40;99.90;;;;;;4997163;28;20081;-76
2023/02/15 10:03:20;;;;;;;0.17;0.17;;;2.50;99.90;;;;;;4982793;28;20027;-76
2023/02/15 10:06:03;;;;;;;0.20;0.20;;;2.50;99.90;;;;;;4973676;28;20494;-76
2023/02/15 10:08:47;;;;;;;0.10;0.10;;;2.60;99.90;;;;;;4987878;28;20030;-76
2023/02/15 10:11:41;;;;;;;0.17;0.17;;;2.70;99.90;;;;;;5008643;28;20030;-76
2023/02/15 10:14:37;;;;;;;0.10;0.10;;;2.80;99.90;;;;;;4995069;28;20033;-76
2023/02/15 10:17:21;;;;;;;0.10;0.10;;;2.80;99.90;;;;;;4996873;28;20387;-76
2023/02/15 10:19:52;;;;;;;0.20;0.20;;;2.80;99.90;;;;;;4996658;28;20066;-76
2023/02/15 10:22:30;;;;;;;0.30;0.30;;;2.90;99.90;;;;;;4996311;28;20054;-76
2023/02/15 10:25:37;;;;;;;0.20;0.20;;;3.00;99.90;;;;;;4996332;28;20034;-76
2023/02/15 10:28:11;;;;;;;0.20;0.20;;;3.10;99.90;;;;;;4960475;28;20039;-76
2023/02/15 10:30:46;;;;;;;0.20;0.20;;;3.20;99.90;;;;;;4996667;28;20487;-76
2023/02/15 10:33:40;;;;;;;0.20;0.20;;;3.30;99.90;;;;;;4996281;28;20030;-77
2023/02/15 10:36:32;;;;;;;0.20;0.20;;;3.30;99.90;;;;;;4996539;28;20018;-76
2023/02/15 10:39:21;;;;;;;0.20;0.20;;;3.20;99.90;;;;;;4996549;28;20181;-76
2023/02/15 10:42:10;;;;;;;0.20;0.20;;;3.20;99.90;;;;;;4996289;28;20025;-76
2023/02/15 10:44:55;;;;;;;0.10;0.10;;;3.20;99.90;;;;;;4996455;28;20026;-76
2023/02/15 10:47:41;;;;;;;0.20;0.20;;;3.20;99.90;;;;;;4996374;28;20057;-76
2023/02/15 10:50:37;;;;;;;0.20;0.20;;;3.30;99.90;;;;;;4996081;28;20392;-77
2023/02/15 10:53:17;;;;;;;0.10;0.10;;;3.30;99.90;;;;;;4997105;28;20061;-77
2023/02/15 10:56:05;;;;;;;0.10;0.10;;;3.20;99.90;;;;;;4997005;28;20376;-76
2023/02/15 10:58:44;;;;;;;0.20;0.20;;;3.30;99.90;;;;;;4996199;28;20122;-76
2023/02/15 11:01:23;;;;;;;0.20;0.20;;;3.40;99.90;;;;;;4996211;28;20101;-77
2023/02/15 11:04:06;;;;;;;0.20;0.20;;;3.50;99.90;;;;;;4983518;28;20411;-76
2023/02/15 11:06:35;;;;;;;0.10;0.10;;;3.60;99.90;;;;;;4995011;28;20407;-77
2023/02/15 11:09:05;;;;;;;0.10;0.10;;;3.70;99.90;;;;;;4996041;28;20058;-75
2023/02/15 11:11:36;;;;;;;0.20;0.20;;;3.80;99.90;;;;;;4996508;28;20031;-76
2023/02/15 11:14:23;;;;;;;0.20;0.20;;;3.80;99.90;;;;;;4995846;28;20034;-76
2023/02/15 11:16:55;;;;;;;0.10;0.10;;;3.70;99.90;;;;;;4995824;28;20085;-75
2023/02/15 11:19:35;;;;;;;0.20;0.20;;;3.80;99.90;;;;;;4995902;28;20113;-77
2023/02/15 11:22:06;;;;;;;0.20;0.20;;;3.80;99.90;;;;;;4984149;28;20144;-76
2023/02/15 11:24:43;;;;;;;0.30;0.30;;;3.80;99.90;;;;;;4986893;28;20029;-76
2023/02/15 11:27:22;;;;;;;0.20;0.20;;;3.80;99.90;;;;;;4982361;28;20131;-77
2023/02/15 11:30:00;;;;;;;0.20;0.20;;;3.80;99.90;;;;;;4992548;28;20026;-78
2023/02/15 11:32:39;;;;;;;0.20;0.20;;;3.70;99.90;;;;;;4989544;28;20034;-77
2023/02/15 11:35:10;;;;;;;0.10;0.10;;;3.80;99.90;;;;;;4981972;28;20396;-77
2023/02/15 11:38:19;;;;;;;0.20;0.20;;;3.90;99.90;;;;;;4990039;28;20073;-77
2023/02/15 11:40:56;;;;;;;0.20;0.20;;;4.00;99.90;;;;;;4989075;28;20022;-77
2023/02/15 11:43:31;;;;;;;0.17;0.17;;;3.90;99.90;;;;;;4992232;28;20369;-76
2023/02/15 11:45:57;;;;;;;0.20;0.20;;;4.00;99.90;;;;;;4989028;28;20030;-77
2023/02/15 11:48:23;;;;;;;0.17;0.17;;;4.10;99.90;;;;;;4986641;28;20023;-79
2023/02/15 11:50:48;;;;;;;0.20;0.20;;;4.10;99.90;;;;;;4992942;28;20033;-78
2023/02/15 11:53:25;;;;;;;0.20;0.20;;;4.00;99.90;;;;;;4989574;28;20026;-77
2023/02/15 11:55:51;;;;;;;0.20;0.20;;;4.00;99.90;;;;;;4990372;28;20034;-77
2023/02/15 11:58:35;;;;;;;0.20;0.20;;;4.00;99.90;;;;;;4987624;28;20448;-78
2023/02/15 12:01:10;;;;;;;0.13;0.13;;;4.10;99.90;;;;;;4990086;28;20022;-77
2023/02/15 12:03:47;;;;;;;0.20;0.20;;;4.00;99.90;;;;;;4993580;28;20070;-76
2023/02/15 12:06:20;;;;;;;0.20;0.20;;;4.10;99.90;;;;;;5018626;23;20030;-74
2023/02/15 12:08:53;;;;;;;0.20;0.20;;;4.10;99.90;;;;;;4993684;28;20034;-74
2023/02/15 12:11:29;;;;;;;0.28;0.28;;;4.20;99.90;;;;;;4994785;28;20023;-76
2023/02/15 12:14:02;;;;;;;0.10;0.10;;;4.20;99.90;;;;;;4993798;28;20057;-75
2023/02/15 12:16:31;;;;;;;0.20;0.20;;;4.10;99.90;;;;;;4991129;28;20050;-74
2023/02/15 12:18:59;;;;;;;0.10;0.10;;;4.10;99.90;;;;;;4994533;28;20534;-74
2023/02/15 12:21:28;;;;;;;0.10;0.10;;;4.10;99.90;;;;;;4994474;28;20494;-74
2023/02/15 12:24:03;;;;;;;0.13;0.13;;;4.20;99.90;;;;;;4981971;28;20494;-75
2023/02/15 12:26:32;;;;;;;0.20;0.20;;;4.20;99.90;;;;;;4994364;28;20033;-74
2023/02/15 12:29:07;;;;;;;0.10;0.10;;;4.20;99.90;;;;;;4994600;28;20023;-76
2023/02/15 12:31:38;;;;;;;0.20;0.20;;;4.20;99.90;;;;;;4994336;28;20074;-75
2023/02/15 12:34:22;;;;;;;0.17;0.17;;;4.20;99.90;;;;;;4993677;28;20439;-76
2023/02/15 12:36:54;;;;;;;0.10;0.10;;;4.40;99.90;;;;;;4994344;28;20077;-75
2023/02/15 12:39:30;;;;;;;0.20;0.20;;;4.50;99.90;;;;;;4994303;28;20031;-76
2023/02/15 12:41:55;;;;;;;0.10;0.10;;;4.60;99.90;;;;;;5009279;28;20023;-76
2023/02/15 12:44:24;;;;;;;0.10;0.10;;;4.60;99.90;;;;;;4993890;28;20133;-75
2023/02/15 12:47:16;;;;;;;0.20;0.20;;;4.70;99.90;;;;;;4994458;28;20429;-75
2023/02/15 12:49:42;;;;;;;0.10;0.10;;;4.60;99.90;;;;;;4994065;28;20057;-75
2023/02/15 12:52:22;;;;;;;0.10;0.10;;;4.50;99.90;;;;;;4994161;28;20030;-75
2023/02/15 12:54:49;;;;;;;0.10;0.10;;;4.50;99.90;;;;;;4994083;28;20030;-75
2023/02/15 12:57:21;;;;;;;0.20;0.20;;;4.40;99.90;;;;;;4993857;28;20014;-76
2023/02/15 12:59:55;;;;;;;0.20;0.20;;;4.40;99.90;;;;;;4994210;28;20019;-76
2023/02/15 13:02:40;;;;;;;0.20;0.20;;;4.50;99.90;;;;;;4974939;28;20031;-76
2023/02/15 13:05:25;;;;;;;0.30;0.30;;;4.60;99.90;;;;;;4974560;28;20033;-75
2023/02/15 13:07:57;;;;;;;0.10;0.10;;;4.60;99.90;;;;;;4989629;28;20030;-75
2023/02/15 13:10:36;;;;;;;0.10;0.10;;;4.70;99.90;;;;;;4984732;28;20407;-76
2023/02/15 13:13:17;;;;;;;0.20;0.20;;;4.60;99.90;;;;;;4983701;28;20061;-76
2023/02/15 13:15:48;;;;;;;0.20;0.20;;;4.50;99.90;;;;;;4993893;28;20105;-76
2023/02/15 13:18:27;;;;;;;0.20;0.20;;;4.60;99.90;;;;;;4993709;28;20065;-75
2023/02/15 13:20:53;;;;;;;0.20;0.20;;;4.60;99.90;;;;;;4993704;28;20065;-76
2023/02/15 13:23:30;;;;;;;0.10;0.10;;;4.70;99.90;;;;;;4993740;28;20038;-75
2023/02/15 13:26:02;;;;;;;0.10;0.10;;;4.70;99.90;;;;;;4993747;28;20026;-75
2023/02/15 13:28:45;;;;;;;0.20;0.20;;;4.60;99.90;;;;;;4993668;28;20061;-76
2023/02/15 13:31:17;;;;;;;0.13;0.13;;;4.60;99.90;;;;;;4993852;28;20487;-75
2023/02/15 13:33:49;;;;;;;0.20;0.20;;;4.60;99.90;;;;;;4993582;28;20058;-75
2023/02/15 13:36:26;;;;;;;0.10;0.10;;;4.70;99.90;;;;;;5008657;28;20041;-75
2023/02/15 13:39:13;;;;;;;0.20;0.20;;;4.80;99.90;;;;;;4993573;28;20081;-75
2023/02/15 13:41:52;;;;;;;0.20;0.20;;;4.70;99.90;;;;;;4993715;28;20030;-75